sensor_id;sensor_type;location;lat;lon;timestamp;pressure;altitude;pressure_sealevel;temperature;humidity
73651;BME280;61944;52.538;6.108;2023-03-03T00:00:46;102538.84;;;1.90;100.00
73651;BME280;61944;52.538;6.108;2023-03-03T00:03:15;102539.69;;;1.75;100.00
73651;BME280;61944;52.538;6.108;2023-03-03T00:05:42;102532.81;;;1.57;100.00
73651;BME280;61944;52.538;6.108;2023-03-03T00:08:07;102530.84;;;1.83;100.00
73651;BME280;61944;52.538;6.108;2023-03-03T00:10:33;102530.56;;;1.85;100.00
73651;BME280;61944;52.538;6.108;2023-03-03T00:12:59;102530.84;;;1.83;100.00
73651;BME280;61944;52.538;6.108;2023-03-03T00:15:25;102527.84;;;1.69;100.00
73651;BME280;61944;52.538;6.108;2023-03-03T00:17:53;102531.69;;;1.53;100.00
73651;BME280;61944;52.538;6.108;2023-03-03T00:22:50;102536.66;;;1.66;100.00
73651;BME280;61944;52.538;6.108;2023-03-03T00:25:32;102543.28;;;1.75;100.00
73651;BME280;61944;52.538;6.108;2023-03-03T00:28:07;102532.78;;;1.72;100.00
73651;BME280;61944;52.538;6.108;2023-03-03T00:30:40;102536.66;;;1.66;100.00
73651;BME280;61944;52.538;6.108;2023-03-03T00:33:21;102550.72;;;1.95;100.00
73651;BME280;61944;52.538;6.108;2023-03-03T00:35:52;102543.28;;;1.75;100.00
73651;BME280;61944;52.538;6.108;2023-03-03T00:38:18;102549.63;;;1.71;100.00
73651;BME280;61944;52.538;6.108;2023-03-03T00:40:44;102545.47;;;1.68;100.00
73651;BME280;61944;52.538;6.108;2023-03-03T00:45:56;102548.81;;;1.86;100.00
73651;BME280;61944;52.538;6.108;2023-03-03T00:48:31;102550.44;;;1.87;100.00
73651;BME280;61944;52.538;6.108;2023-03-03T00:51:27;102557.34;;;1.89;100.00
73651;BME280;61944;52.538;6.108;2023-03-03T00:53:54;102553.72;;;2.04;100.00
73651;BME280;61944;52.538;6.108;2023-03-03T00:56:19;102554.56;;;2.05;100.00
73651;BME280;61944;52.538;6.108;2023-03-03T00:58:45;102550.44;;;1.87;100.00
73651;BME280;61944;52.538;6.108;2023-03-03T01:01:12;102551.56;;;1.86;100.00
73651;BME280;61944;52.538;6.108;2023-03-03T01:03:38;102552.06;;;1.98;100.00
73651;BME280;61944;52.538;6.108;2023-03-03T01:06:03;102550.97;;;2.09;100.00
73651;BME280;61944;52.538;6.108;2023-03-03T01:08:29;102551.78;;;2.10;100.00
73651;BME280;61944;52.538;6.108;2023-03-03T01:10:56;102548.44;;;2.28;100.00
73651;BME280;61944;52.538;6.108;2023-03-03T01:13:26;102546.78;;;2.27;100.00
73651;BME280;61944;52.538;6.108;2023-03-03T01:15:52;102548.22;;;1.99;100.00
73651;BME280;61944;52.538;6.108;2023-03-03T01:18:18;102544.63;;;1.93;100.00
73651;BME280;61944;52.538;6.108;2023-03-03T01:20:43;102536.91;;;2.00;100.00
73651;BME280;61944;52.538;6.108;2023-03-03T01:23:08;102549.88;;;2.00;100.00
73651;BME280;61944;52.538;6.108;2023-03-03T01:25:35;102547.66;;;2.17;100.00
73651;BME280;61944;52.538;6.108;2023-03-03T01:28:00;102547.38;;;2.03;100.00
73651;BME280;61944;52.538;6.108;2023-03-03T01:30:26;102553.47;;;2.00;100.00
73651;BME280;61944;52.538;6.108;2023-03-03T01:32:51;102551.00;;;1.99;100.00
73651;BME280;61944;52.538;6.108;2023-03-03T01:35:17;102544.06;;;2.01;100.00
73651;BME280;61944;52.538;6.108;2023-03-03T01:37:42;102534.41;;;2.04;100.00
73651;BME280;61944;52.538;6.108;2023-03-03T01:40:19;102538.00;;;1.99;100.00
73651;BME280;61944;52.538;6.108;2023-03-03T01:42:45;102541.59;;;1.90;100.00
73651;BME280;61944;52.538;6.108;2023-03-03T01:45:25;102534.72;;;1.77;100.00
73651;BME280;61944;52.538;6.108;2023-03-03T01:50:56;102539.41;;;1.81;100.00
73651;BME280;61944;52.538;6.108;2023-03-03T01:53:27;102531.69;;;1.73;100.00
73651;BME280;61944;52.538;6.108;2023-03-03T01:55:54;102530.84;;;1.78;100.00
73651;BME280;61944;52.538;6.108;2023-03-03T02:00:53;102525.56;;;2.02;100.00
73651;BME280;61944;52.538;6.108;2023-03-03T02:03:21;102518.38;;;2.11;100.00
73651;BME280;61944;52.538;6.108;2023-03-03T02:05:48;102524.50;;;1.82;100.00
73651;BME280;61944;52.538;6.108;2023-03-03T02:08:18;102523.91;;;2.01;100.00
73651;BME280;61944;52.538;6.108;2023-03-03T02:10:45;102521.34;;;2.30;100.00
73651;BME280;61944;52.538;6.108;2023-03-03T02:13:11;102524.44;;;2.23;100.00
73651;BME280;61944;52.538;6.108;2023-03-03T02:15:38;102522.22;;;2.15;100.00
73651;BME280;61944;52.538;6.108;2023-03-03T02:18:08;102520.59;;;2.09;100.00
73651;BME280;61944;52.538;6.108;2023-03-03T02:28:22;102514.31;;;2.58;100.00
73651;BME280;61944;52.538;6.108;2023-03-03T02:30:48;102524.94;;;2.31;100.00
73651;BME280;61944;52.538;6.108;2023-03-03T02:33:14;102515.63;;;2.01;100.00
73651;BME280;61944;52.538;6.108;2023-03-03T02:35:40;102523.34;;;2.09;100.00
73651;BME280;61944;52.538;6.108;2023-03-03T02:38:20;102522.72;;;2.28;100.00
73651;BME280;61944;52.538;6.108;2023-03-03T02:41:01;102523.59;;;2.13;100.00
73651;BME280;61944;52.538;6.108;2023-03-03T02:43:36;102523.81;;;2.32;100.00
73651;BME280;61944;52.538;6.108;2023-03-03T02:46:06;102523.28;;;2.30;100.00
73651;BME280;61944;52.538;6.108;2023-03-03T02:48:32;102516.13;;;2.23;100.00
73651;BME280;61944;52.538;6.108;2023-03-03T02:50:57;102519.94;;;2.38;100.00
73651;BME280;61944;52.538;6.108;2023-03-03T02:53:23;102519.94;;;2.43;100.00
73651;BME280;61944;52.538;6.108;2023-03-03T02:55:48;102517.69;;;2.50;100.00
73651;BME280;61944;52.538;6.108;2023-03-03T02:58:13;102515.50;;;2.42;100.00
73651;BME280;61944;52.538;6.108;2023-03-03T03:00:39;102520.00;;;2.17;100.00
73651;BME280;61944;52.538;6.108;2023-03-03T03:03:04;102516.38;;;2.32;100.00
73651;BME280;61944;52.538;6.108;2023-03-03T03:05:29;102514.44;;;2.28;100.00
73651;BME280;61944;52.538;6.108;2023-03-03T03:07:55;102520.50;;;2.35;100.00
73651;BME280;61944;52.538;6.108;2023-03-03T03:10:20;102516.72;;;2.15;100.00
73651;BME280;61944;52.538;6.108;2023-03-03T03:12:46;102521.25;;;2.51;100.00
73651;BME280;61944;52.538;6.108;2023-03-03T03:15:11;102515.59;;;2.21;100.00
73651;BME280;61944;52.538;6.108;2023-03-03T03:17:37;102517.81;;;2.09;100.00
73651;BME280;61944;52.538;6.108;2023-03-03T03:20:03;102519.97;;;2.33;100.00
73651;BME280;61944;52.538;6.108;2023-03-03T03:22:28;102511.44;;;2.19;100.00
73651;BME280;61944;52.538;6.108;2023-03-03T03:24:54;102513.06;;;2.30;100.00
73651;BME280;61944;52.538;6.108;2023-03-03T03:27:19;102516.09;;;2.29;100.00
73651;BME280;61944;52.538;6.108;2023-03-03T03:29:47;102523.56;;;2.23;100.00
73651;BME280;61944;52.538;6.108;2023-03-03T03:32:12;102524.16;;;2.15;100.00
73651;BME280;61944;52.538;6.108;2023-03-03T03:34:40;102521.63;;;2.29;100.00
73651;BME280;61944;52.538;6.108;2023-03-03T03:37:05;102527.66;;;2.36;100.00
73651;BME280;61944;52.538;6.108;2023-03-03T03:39:34;102517.75;;;2.35;100.00
73651;BME280;61944;52.538;6.108;2023-03-03T03:42:00;102523.81;;;2.37;100.00
73651;BME280;61944;52.538;6.108;2023-03-03T03:44:25;102521.59;;;2.39;100.00
73651;BME280;61944;52.538;6.108;2023-03-03T03:46:51;102524.91;;;2.41;100.00
73651;BME280;61944;52.538;6.108;2023-03-03T03:49:16;102518.81;;;2.44;100.00
73651;BME280;61944;52.538;6.108;2023-03-03T03:51:42;102522.72;;;2.33;100.00
73651;BME280;61944;52.538;6.108;2023-03-03T03:54:07;102528.75;;;2.40;100.00
73651;BME280;61944;52.538;6.108;2023-03-03T03:56:32;102522.69;;;2.38;100.00
73651;BME280;61944;52.538;6.108;2023-03-03T03:58:58;102523.25;;;2.40;100.00
73651;BME280;61944;52.538;6.108;2023-03-03T04:01:25;102524.94;;;2.31;100.00
73651;BME280;61944;52.538;6.108;2023-03-03T04:03:50;102522.16;;;2.36;100.00
73651;BME280;61944;52.538;6.108;2023-03-03T04:06:16;102527.09;;;2.49;100.00
73651;BME280;61944;52.538;6.108;2023-03-03T04:08:41;102535.03;;;2.61;100.00
73651;BME280;61944;52.538;6.108;2023-03-03T04:11:06;102523.19;;;2.50;100.00
73651;BME280;61944;52.538;6.108;2023-03-03T04:13:32;102527.66;;;2.36;100.00
73651;BME280;61944;52.538;6.108;2023-03-03T04:16:00;102522.69;;;2.43;100.00
73651;BME280;61944;52.538;6.108;2023-03-03T04:18:25;102535.94;;;2.46;100.00
73651;BME280;61944;52.538;6.108;2023-03-03T04:20:51;102530.69;;;2.44;100.00
73651;BME280;61944;52.538;6.108;2023-03-03T04:23:17;102528.75;;;2.40;100.00
73651;BME280;61944;52.538;6.108;2023-03-03T04:25:45;102528.50;;;2.41;100.00
73651;BME280;61944;52.538;6.108;2023-03-03T04:28:11;102524.63;;;2.42;100.00
73651;BME280;61944;52.538;6.108;2023-03-03T04:30:36;102527.91;;;2.50;100.00
73651;BME280;61944;52.538;6.108;2023-03-03T04:33:02;102522.66;;;2.48;100.00
73651;BME280;61944;52.538;6.108;2023-03-03T04:35:27;102522.41;;;2.39;100.00
73651;BME280;61944;52.538;6.108;2023-03-03T04:37:53;102513.84;;;2.41;100.00
73651;BME280;61944;52.538;6.108;2023-03-03T04:40:18;102522.16;;;2.36;100.00
73651;BME280;61944;52.538;6.108;2023-03-03T04:42:44;102526.31;;;2.38;100.00
73651;BME280;61944;52.538;6.108;2023-03-03T04:45:09;102523.00;;;2.31;100.00
73651;BME280;61944;52.538;6.108;2023-03-03T04:47:35;102527.41;;;2.42;100.00
73651;BME280;61944;52.538;6.108;2023-03-03T04:50:00;102524.88;;;2.51;100.00
73651;BME280;61944;52.538;6.108;2023-03-03T04:52:26;102520.16;;;2.47;100.00
73651;BME280;61944;52.538;6.108;2023-03-03T04:54:52;102526.50;;;2.52;100.00
73651;BME280;61944;52.538;6.108;2023-03-03T04:57:17;102522.06;;;2.56;100.00
73651;BME280;61944;52.538;6.108;2023-03-03T04:59:43;102518.81;;;2.49;100.00
73651;BME280;61944;52.538;6.108;2023-03-03T05:02:08;102517.72;;;2.45;100.00
73651;BME280;61944;52.538;6.108;2023-03-03T05:04:34;102527.31;;;2.58;100.00
73651;BME280;61944;52.538;6.108;2023-03-03T05:06:59;102520.44;;;2.55;100.00
73651;BME280;61944;52.538;6.108;2023-03-03T05:09:25;102517.94;;;2.54;100.00
73651;BME280;61944;52.538;6.108;2023-03-03T05:11:51;102519.91;;;2.48;100.00
73651;BME280;61944;52.538;6.108;2023-03-03T05:14:16;102517.31;;;2.67;100.00
73651;BME280;61944;52.538;6.108;2023-03-03T05:16:42;102523.19;;;2.50;100.00
73651;BME280;61944;52.538;6.108;2023-03-03T05:19:07;102518.81;;;2.44;100.00
73651;BME280;61944;52.538;6.108;2023-03-03T05:21:32;102515.19;;;2.49;100.00
73651;BME280;61944;52.538;6.108;2023-03-03T05:23:58;102527.06;;;2.59;100.00
73651;BME280;61944;52.538;6.108;2023-03-03T05:26:23;102529.25;;;2.62;100.00
73651;BME280;61944;52.538;6.108;2023-03-03T05:28:49;102532.03;;;2.57;100.00
73651;BME280;61944;52.538;6.108;2023-03-03T05:31:14;102523.44;;;2.59;100.00
73651;BME280;61944;52.538;6.108;2023-03-03T05:33:39;102538.38;;;2.58;100.00
73651;BME280;61944;52.538;6.108;2023-03-03T05:36:05;102530.00;;;2.73;100.00
73651;BME280;61944;52.538;6.108;2023-03-03T05:38:30;102528.59;;;2.81;100.00
73651;BME280;61944;52.538;6.108;2023-03-03T05:40:56;102539.97;;;2.74;100.00
73651;BME280;61944;52.538;6.108;2023-03-03T05:43:21;102532.22;;;2.76;100.00
73651;BME280;61944;52.538;6.108;2023-03-03T05:45:47;102545.44;;;2.84;100.00
73651;BME280;61944;52.538;6.108;2023-03-03T05:48:12;102536.41;;;2.69;100.00
73651;BME280;61944;52.538;6.108;2023-03-03T05:50:37;102536.94;;;2.65;100.00
73651;BME280;61944;52.538;6.108;2023-03-03T05:53:03;102537.50;;;2.68;100.00
73651;BME280;61944;52.538;6.108;2023-03-03T05:55:28;102543.47;;;2.95;100.00
73651;BME280;61944;52.538;6.108;2023-03-03T05:57:54;102540.03;;;2.64;100.00
73651;BME280;61944;52.538;6.108;2023-03-03T06:00:20;102540.34;;;2.52;100.00
73651;BME280;61944;52.538;6.108;2023-03-03T06:02:46;102543.88;;;2.63;100.00
73651;BME280;61944;52.538;6.108;2023-03-03T06:05:11;102545.56;;;2.64;100.00
73651;BME280;61944;52.538;6.108;2023-03-03T06:07:37;102542.81;;;2.49;100.00
73651;BME280;61944;52.538;6.108;2023-03-03T06:10:03;102549.72;;;2.61;100.00
73651;BME280;61944;52.538;6.108;2023-03-03T06:12:29;102545.25;;;2.65;100.00
73651;BME280;61944;52.538;6.108;2023-03-03T06:14:54;102539.97;;;2.69;100.00
73651;BME280;61944;52.538;6.108;2023-03-03T06:17:19;102543.00;;;2.73;100.00
73651;BME280;61944;52.538;6.108;2023-03-03T06:19:45;102539.72;;;2.71;100.00
73651;BME280;61944;52.538;6.108;2023-03-03T06:22:12;102543.03;;;2.68;100.00
73651;BME280;61944;52.538;6.108;2023-03-03T06:24:37;102537.50;;;2.68;100.00
73651;BME280;61944;52.538;6.108;2023-03-03T06:27:02;102533.91;;;2.67;100.00
73651;BME280;61944;52.538;6.108;2023-03-03T06:29:28;102522.59;;;2.63;100.00
73651;BME280;61944;52.538;6.108;2023-03-03T06:31:54;102542.75;;;2.69;100.00
73651;BME280;61944;52.538;6.108;2023-03-03T06:34:19;102538.97;;;2.50;100.00
73651;BME280;61944;52.538;6.108;2023-03-03T06:36:45;102547.88;;;2.31;100.00
73651;BME280;61944;52.538;6.108;2023-03-03T06:39:11;102546.41;;;2.59;100.00
73651;BME280;61944;52.538;6.108;2023-03-03T06:41:36;102546.38;;;2.64;100.00
73651;BME280;61944;52.538;6.108;2023-03-03T06:44:02;102549.09;;;2.70;100.00
73651;BME280;61944;52.538;6.108;2023-03-03T06:46:27;102552.16;;;2.68;100.00
73651;BME280;61944;52.538;6.108;2023-03-03T06:48:53;102551.31;;;2.68;100.00
73651;BME280;61944;52.538;6.108;2023-03-03T06:51:22;102551.59;;;2.71;100.00
73651;BME280;61944;52.538;6.108;2023-03-03T06:53:53;102553.22;;;2.77;100.00
73651;BME280;61944;52.538;6.108;2023-03-03T06:56:19;102555.16;;;2.77;100.00
73651;BME280;61944;52.538;6.108;2023-03-03T06:58:44;102562.66;;;2.76;100.00
73651;BME280;61944;52.538;6.108;2023-03-03T07:01:15;102562.09;;;2.74;100.00
73651;BME280;61944;52.538;6.108;2023-03-03T07:03:41;102556.31;;;2.71;100.00
73651;BME280;61944;52.538;6.108;2023-03-03T07:06:25;102562.38;;;2.73;100.00
73651;BME280;61944;52.538;6.108;2023-03-03T07:08:53;102568.22;;;2.66;100.00
73651;BME280;61944;52.538;6.108;2023-03-03T07:11:21;102572.88;;;2.65;100.00
73651;BME280;61944;52.538;6.108;2023-03-03T07:13:49;102577.56;;;2.75;100.00
73651;BME280;61944;52.538;6.108;2023-03-03T07:16:17;102578.41;;;2.71;100.00
73651;BME280;61944;52.538;6.108;2023-03-03T07:18:58;102582.81;;;2.77;100.00
73651;BME280;61944;52.538;6.108;2023-03-03T07:21:35;102587.22;;;2.78;100.00
73651;BME280;61944;52.538;6.108;2023-03-03T07:24:46;102583.34;;;2.84;100.00
73651;BME280;61944;52.538;6.108;2023-03-03T07:29:29;102582.28;;;2.70;100.00
73651;BME280;61944;52.538;6.108;2023-03-03T07:31:56;102588.91;;;2.74;100.00
73651;BME280;61944;52.538;6.108;2023-03-03T07:34:35;102582.81;;;2.77;100.00
73651;BME280;61944;52.538;6.108;2023-03-03T07:37:08;102599.94;;;2.84;100.00
73651;BME280;61944;52.538;6.108;2023-03-03T07:39:35;102608.75;;;2.86;100.00
73651;BME280;61944;52.538;6.108;2023-03-03T07:47:45;102615.41;;;2.85;100.00
73651;BME280;61944;52.538;6.108;2023-03-03T07:50:18;102621.03;;;2.64;100.00
73651;BME280;61944;52.538;6.108;2023-03-03T07:52:58;102628.72;;;2.78;100.00
73651;BME280;61944;52.538;6.108;2023-03-03T07:55:33;102622.94;;;2.74;100.00
73651;BME280;61944;52.538;6.108;2023-03-03T08:03:11;102628.72;;;2.78;100.00
73651;BME280;61944;52.538;6.108;2023-03-03T08:05:42;102623.13;;;2.88;100.00
73651;BME280;61944;52.538;6.108;2023-03-03T08:08:31;102633.91;;;2.95;100.00
73651;BME280;61944;52.538;6.108;2023-03-03T08:11:01;102641.91;;;2.96;100.00
73651;BME280;61944;52.538;6.108;2023-03-03T08:21:02;102648.50;;;3.05;100.00
73651;BME280;61944;52.538;6.108;2023-03-03T08:23:30;102642.66;;;3.17;100.00
73651;BME280;61944;52.538;6.108;2023-03-03T08:25:56;102640.13;;;3.26;100.00
73651;BME280;61944;52.538;6.108;2023-03-03T08:28:21;102647.09;;;3.13;100.00
73651;BME280;61944;52.538;6.108;2023-03-03T08:30:48;102640.75;;;3.13;100.00
73651;BME280;61944;52.538;6.108;2023-03-03T08:33:14;102640.13;;;3.26;100.00
73651;BME280;61944;52.538;6.108;2023-03-03T08:35:40;102645.75;;;3.11;100.00
73651;BME280;61944;52.538;6.108;2023-03-03T08:38:06;102635.50;;;3.11;100.00
73651;BME280;61944;52.538;6.108;2023-03-03T08:40:32;102634.63;;;3.16;100.00
73651;BME280;61944;52.538;6.108;2023-03-03T08:42:57;102638.25;;;3.11;100.00
73651;BME280;61944;52.538;6.108;2023-03-03T08:45:24;102637.56;;;3.35;100.00
73651;BME280;61944;52.538;6.108;2023-03-03T08:47:49;102638.16;;;3.32;100.00
73651;BME280;61944;52.538;6.108;2023-03-03T08:50:16;102637.78;;;3.49;100.00
73651;BME280;61944;52.538;6.108;2023-03-03T08:52:42;102634.84;;;3.30;100.00
73651;BME280;61944;52.538;6.108;2023-03-03T08:55:08;102632.94;;;3.25;100.00
73651;BME280;61944;52.538;6.108;2023-03-03T08:57:33;102640.38;;;3.30;100.00
73651;BME280;61944;52.538;6.108;2023-03-03T08:59:59;102633.31;;;3.53;100.00
73651;BME280;61944;52.538;6.108;2023-03-03T09:02:24;102628.34;;;3.50;100.00
73651;BME280;61944;52.538;6.108;2023-03-03T09:04:50;102644.16;;;3.83;100.00
73651;BME280;61944;52.538;6.108;2023-03-03T09:07:15;102639.47;;;3.84;100.00
73651;BME280;61944;52.538;6.108;2023-03-03T09:09:40;102646.50;;;3.71;100.00
73651;BME280;61944;52.538;6.108;2023-03-03T09:12:16;102642.72;;;3.57;100.00
73651;BME280;61944;52.538;6.108;2023-03-03T09:14:42;102638.22;;;3.66;100.00
73651;BME280;61944;52.538;6.108;2023-03-03T09:17:24;102643.19;;;3.69;100.00
73651;BME280;61944;52.538;6.108;2023-03-03T09:19:52;102636.69;;;3.44;100.00
73651;BME280;61944;52.538;6.108;2023-03-03T09:22:20;102633.88;;;3.50;100.00
73651;BME280;61944;52.538;6.108;2023-03-03T09:24:47;102644.13;;;3.54;100.00
73651;BME280;61944;52.538;6.108;2023-03-03T09:27:32;102646.09;;;3.43;100.00
73651;BME280;61944;52.538;6.108;2023-03-03T09:30:35;102642.84;;;3.76;100.00
73651;BME280;61944;52.538;6.108;2023-03-03T09:33:18;102636.16;;;3.82;100.00
73651;BME280;61944;52.538;6.108;2023-03-03T09:35:49;102642.13;;;3.99;100.00
73651;BME280;61944;52.538;6.108;2023-03-03T09:38:30;102639.75;;;3.82;100.00
73651;BME280;61944;52.538;6.108;2023-03-03T09:46:23;102634.59;;;4.05;100.00
73651;BME280;61944;52.538;6.108;2023-03-03T09:54:37;102644.59;;;4.01;100.00
73651;BME280;61944;52.538;6.108;2023-03-03T09:57:13;102639.53;;;4.08;100.00
73651;BME280;61944;52.538;6.108;2023-03-03T10:08:52;102651.09;;;4.15;100.00
73651;BME280;61944;52.538;6.108;2023-03-03T10:11:28;102652.50;;;4.47;100.00
73651;BME280;61944;52.538;6.108;2023-03-03T10:16:40;102652.72;;;4.21;100.00
73651;BME280;61944;52.538;6.108;2023-03-03T10:24:48;102645.44;;;4.31;100.00
73651;BME280;61944;52.538;6.108;2023-03-03T10:30:23;102647.97;;;4.27;100.00
73651;BME280;61944;52.538;6.108;2023-03-03T10:35:36;102651.22;;;4.34;100.00
73651;BME280;61944;52.538;6.108;2023-03-03T10:46:28;102657.34;;;4.60;100.00
73651;BME280;61944;52.538;6.108;2023-03-03T10:57:09;102645.88;;;4.67;100.00
73651;BME280;61944;52.538;6.108;2023-03-03T11:02:32;102646.25;;;4.84;100.00
73651;BME280;61944;52.538;6.108;2023-03-03T11:11:34;102649.72;;;5.19;100.00
73651;BME280;61944;52.538;6.108;2023-03-03T11:14:30;102642.72;;;5.22;100.00
73651;BME280;61944;52.538;6.108;2023-03-03T11:20:20;102646.44;;;5.36;100.00
73651;BME280;61944;52.538;6.108;2023-03-03T11:22:56;102640.41;;;5.29;100.00
73651;BME280;61944;52.538;6.108;2023-03-03T11:25:33;102643.03;;;5.20;100.00
73651;BME280;61944;52.538;6.108;2023-03-03T11:30:52;102640.13;;;5.49;100.00
73651;BME280;61944;52.538;6.108;2023-03-03T11:34:08;102637.44;;;5.44;100.00
73651;BME280;61944;52.538;6.108;2023-03-03T11:36:26;102635.75;;;5.43;100.00
73651;BME280;61944;52.538;6.108;2023-03-03T11:39:01;102633.78;;;6.01;100.00
73651;BME280;61944;52.538;6.108;2023-03-03T11:42:03;102624.09;;;5.98;100.00
73651;BME280;61944;52.538;6.108;2023-03-03T11:47:35;102608.69;;;6.06;100.00
73651;BME280;61944;52.538;6.108;2023-03-03T11:55:36;102619.53;;;5.88;100.00
73651;BME280;61944;52.538;6.108;2023-03-03T11:58:28;102620.78;;;5.77;100.00
73651;BME280;61944;52.538;6.108;2023-03-03T12:01:04;102619.53;;;5.88;100.00
73651;BME280;61944;52.538;6.108;2023-03-03T12:03:47;102620.63;;;5.87;100.00
73651;BME280;61944;52.538;6.108;2023-03-03T12:25:44;102605.66;;;6.35;100.00
73651;BME280;61944;52.538;6.108;2023-03-03T12:27:58;102602.81;;;6.54;100.00
73651;BME280;61944;52.538;6.108;2023-03-03T12:36:29;102596.72;;;6.52;95.28
73651;BME280;61944;52.538;6.108;2023-03-03T12:38:41;102590.94;;;6.48;96.65
73651;BME280;61944;52.538;6.108;2023-03-03T12:41:21;102597.44;;;6.44;100.00
73651;BME280;61944;52.538;6.108;2023-03-03T12:44:07;102595.56;;;6.39;100.00
73651;BME280;61944;52.538;6.108;2023-03-03T12:49:31;102580.34;;;6.37;100.00
73651;BME280;61944;52.538;6.108;2023-03-03T13:06:29;102578.66;;;6.36;100.00
73651;BME280;61944;52.538;6.108;2023-03-03T13:09:02;102572.28;;;6.35;100.00
73651;BME280;61944;52.538;6.108;2023-03-03T13:14:41;102572.47;;;6.25;100.00
73651;BME280;61944;52.538;6.108;2023-03-03T13:17:29;102575.47;;;6.28;100.00
73651;BME280;61944;52.538;6.108;2023-03-03T13:19:57;102582.16;;;6.27;100.00
73651;BME280;61944;52.538;6.108;2023-03-03T13:22:30;102584.94;;;6.27;100.00
73651;BME280;61944;52.538;6.108;2023-03-03T13:27:37;102572.06;;;6.31;100.00
73651;BME280;61944;52.538;6.108;2023-03-03T13:30:15;102569.91;;;6.28;100.00
73651;BME280;61944;52.538;6.108;2023-03-03T13:32:43;102575.47;;;6.28;100.00
73651;BME280;61944;52.538;6.108;2023-03-03T13:35:26;102569.22;;;6.37;100.00
73651;BME280;61944;52.538;6.108;2023-03-03T13:37:56;102565.91;;;6.35;100.00
73651;BME280;61944;52.538;6.108;2023-03-03T13:40:25;102564.56;;;6.46;100.00
73651;BME280;61944;52.538;6.108;2023-03-03T13:42:52;102569.41;;;6.54;100.00
73651;BME280;61944;52.538;6.108;2023-03-03T13:50:57;102559.09;;;6.41;100.00
73651;BME280;61944;52.538;6.108;2023-03-03T13:53:41;102558.09;;;6.37;100.00
73651;BME280;61944;52.538;6.108;2023-03-03T14:02:18;102552.53;;;6.37;100.00
73651;BME280;61944;52.538;6.108;2023-03-03T14:05:03;102548.81;;;6.41;100.00
73651;BME280;61944;52.538;6.108;2023-03-03T14:07:37;102536.84;;;6.41;100.00
73651;BME280;61944;52.538;6.108;2023-03-03T14:10:13;102542.19;;;6.51;100.00
73651;BME280;61944;52.538;6.108;2023-03-03T14:13:05;102546.94;;;6.64;100.00
73651;BME280;61944;52.538;6.108;2023-03-03T14:15:35;102530.25;;;6.64;100.00
73651;BME280;61944;52.538;6.108;2023-03-03T14:18:14;102537.44;;;6.79;100.00
73651;BME280;61944;52.538;6.108;2023-03-03T14:20:48;102539.22;;;7.11;100.00
73651;BME280;61944;52.538;6.108;2023-03-03T14:23:26;102533.28;;;7.04;100.00
73651;BME280;61944;52.538;6.108;2023-03-03T14:26:08;102532.28;;;6.86;100.00
73651;BME280;61944;52.538;6.108;2023-03-03T14:29:03;102534.34;;;6.81;100.00
73651;BME280;61944;52.538;6.108;2023-03-03T14:31:39;102524.88;;;6.68;100.00
73651;BME280;61944;52.538;6.108;2023-03-03T14:36:39;102529.09;;;6.65;100.00
73651;BME280;61944;52.538;6.108;2023-03-03T14:39:29;102533.94;;;6.60;100.00
73651;BME280;61944;52.538;6.108;2023-03-03T14:41:56;102520.25;;;6.63;97.35
73651;BME280;61944;52.538;6.108;2023-03-03T14:44:29;102517.97;;;6.65;100.00
73651;BME280;61944;52.538;6.108;2023-03-03T14:49:36;102517.66;;;6.53;97.31
73651;BME280;61944;52.538;6.108;2023-03-03T14:54:38;102510.47;;;6.52;100.00
73651;BME280;61944;52.538;6.108;2023-03-03T14:59:36;102515.50;;;6.64;99.17
73651;BME280;61944;52.538;6.108;2023-03-03T15:04:41;102511.63;;;7.01;96.22
73651;BME280;61944;52.538;6.108;2023-03-03T15:07:32;102512.19;;;6.89;92.85
73651;BME280;61944;52.538;6.108;2023-03-03T15:09:59;102508.44;;;6.94;90.59
73651;BME280;61944;52.538;6.108;2023-03-03T15:15:09;102510.34;;;6.71;96.06
73651;BME280;61944;52.538;6.108;2023-03-03T15:17:52;102498.72;;;6.69;98.93
73651;BME280;61944;52.538;6.108;2023-03-03T15:20:41;102502.44;;;6.64;95.06
73651;BME280;61944;52.538;6.108;2023-03-03T15:23:28;102496.97;;;6.59;100.00
73651;BME280;61944;52.538;6.108;2023-03-03T15:26:51;102497.47;;;6.61;95.79
73651;BME280;61944;52.538;6.108;2023-03-03T15:29:06;102489.44;;;6.60;96.16
73651;BME280;61944;52.538;6.108;2023-03-03T15:34:56;102489.25;;;6.56;98.84
73651;BME280;61944;52.538;6.108;2023-03-03T15:37:51;102480.38;;;6.54;98.32
73651;BME280;61944;52.538;6.108;2023-03-03T15:40:34;102482.13;;;6.50;99.07
73651;BME280;61944;52.538;6.108;2023-03-03T15:43:26;102478.72;;;6.53;100.00
73651;BME280;61944;52.538;6.108;2023-03-03T15:56:45;102474.41;;;6.47;100.00
73651;BME280;61944;52.538;6.108;2023-03-03T16:04:56;102475.13;;;6.53;100.00
73651;BME280;61944;52.538;6.108;2023-03-03T16:10:09;102463.56;;;6.59;100.00
73651;BME280;61944;52.538;6.108;2023-03-03T16:16:03;102474.13;;;6.35;100.00
73651;BME280;61944;52.538;6.108;2023-03-03T16:27:22;102486.16;;;6.16;98.48
73651;BME280;61944;52.538;6.108;2023-03-03T16:33:23;102484.72;;;6.19;100.00
73651;BME280;61944;52.538;6.108;2023-03-03T16:36:09;102478.75;;;6.12;100.00
73651;BME280;61944;52.538;6.108;2023-03-03T16:39:05;102479.38;;;6.08;100.00
73651;BME280;61944;52.538;6.108;2023-03-03T16:52:53;102483.22;;;5.80;100.00
73651;BME280;61944;52.538;6.108;2023-03-03T16:55:24;102482.19;;;5.89;100.00
73651;BME280;61944;52.538;6.108;2023-03-03T16:58:01;102489.59;;;5.80;100.00
73651;BME280;61944;52.538;6.108;2023-03-03T17:00:49;102487.94;;;5.79;100.00
73651;BME280;61944;52.538;6.108;2023-03-03T17:03:45;102492.91;;;5.82;100.00
73651;BME280;61944;52.538;6.108;2023-03-03T17:06:22;102492.28;;;5.85;100.00